Breckenridge, TX

6:48 AM CDT on August 28, 2016 (GMT -0500)
Stephens County

Weather History for KBKD - March, 2014

Change the Weather History Date:

Saturday, March 29, 2014

  Actual Average (KABI) Record (KABI)
Temperature  
Mean Temperature 57 °F 60 °F  
Max Temperature 76 °F 73 °F 96 °F (1967)
Min Temperature 38 °F 47 °F 24 °F (1987)
Degree Days  
Heating Degree Days 8 7  
Month to date heating degree days 285  
Since 1 July heating degree days 2418  
Cooling Degree Days 0 2  
Month to date cooling degree days 26  
Year to date cooling degree days 31  
Growing Degree Days 7 (Base 50)    
Moisture  
Dew Point 30 °F    
Average Humidity 41    
Maximum Humidity 81    
Minimum Humidity 13    
Precipitation  
Precipitation 0.00 in 0.05 in 1.35 in (1979)
Month to date precipitation 1.63  
Year to date precipitation 4.01  
Sea Level Pressure  
Sea Level Pressure 30.23 in    
Wind  
Wind Speed 5 mph (NE)    
Max Wind Speed 13 mph    
Max Gust Speed -    
Visibility 10 miles    
Events      
T = Trace of Precipitation, MM = Missing Value Source: NWS Daily Summary

Daily Weather History Graph

Daily Weather History Graph

Search for Another Location

Airport or City:

Trip Planner

Search our weather history database for the weather conditions in past years. The results will help you decide how hot, cold, wet, or windy it might be!

Date:

Astronomy

Mar. 29, 2014 Rise Set
Actual Time 7:27 AM CDT 7:53 PM CDT
Civil Twilight 7:02 AM CDT 8:18 PM CDT
Nautical Twilight 6:33 AM CDT 8:47 PM CDT
Astronomical Twilight 6:04 AM CDT 9:16 PM CDT
Moon 6:33 AM CDT (3/29) 7:02 PM CDT (3/29)
Length of Visible Light 13h 15m
Length of Day
12h 26m
Waning Crescent, 2% of the Moon is Illuminated
Mar 29
Waning Crescent
Mar 30
New
Apr 7
First Quarter
Apr 15
Full
Apr 22
Last Quarter

Hourly Weather History & Observations

Time (CDT) Temp. Windchill Dew Point Humidity Pressure Visibility Wind Dir Wind Speed Gust Speed Precip Events Conditions
12:15 AM 53.1 °F - 36.5 °F 53% 30.12 in 10.0 mi NE 4.6 mph - N/A   Clear
12:35 AM 52.5 °F - 36.3 °F 54% 30.13 in 10.0 mi Calm Calm - N/A   Clear
1:15 AM 49.5 °F - 36.3 °F 61% 30.15 in 10.0 mi NNW 4.6 mph - N/A   Clear
1:35 AM 49.1 °F - 36.0 °F 61% 30.16 in 10.0 mi NNW 5.8 mph - N/A   Clear
1:55 AM 46.8 °F - 35.6 °F 65% 30.18 in 10.0 mi NW 5.8 mph - N/A   Clear
2:15 AM 48.6 °F - 36.0 °F 62% 30.18 in 10.0 mi NNW 6.9 mph - N/A   Clear
2:35 AM 48.2 °F - 35.8 °F 62% 30.18 in 10.0 mi NNW 6.9 mph - N/A   Clear
2:55 AM 48.2 °F - 35.8 °F 62% 30.19 in 10.0 mi NNW 4.6 mph - N/A   Clear
3:15 AM 46.9 °F - 35.8 °F 65% 30.19 in 10.0 mi North 4.6 mph - N/A   Clear
3:35 AM 46.9 °F - 35.4 °F 64% 30.19 in 10.0 mi North 5.8 mph - N/A   Clear
3:55 AM 46.4 °F 42.9 °F 35.4 °F 66% 30.20 in 10.0 mi North 6.9 mph - N/A   Clear
4:15 AM 44.2 °F 41.0 °F 34.9 °F 70% 30.20 in 10.0 mi NNW 5.8 mph - N/A   Clear
4:35 AM 45.0 °F 41.2 °F 35.2 °F 69% 30.20 in 10.0 mi North 6.9 mph - N/A   Clear
4:55 AM 44.8 °F 41.0 °F 35.1 °F 69% 30.20 in 10.0 mi North 6.9 mph - N/A   Clear
5:15 AM 44.2 °F 40.3 °F 34.9 °F 70% 30.20 in 10.0 mi North 6.9 mph - N/A   Clear
5:35 AM 44.1 °F 40.1 °F 34.7 °F 70% 30.21 in 10.0 mi North 6.9 mph - N/A   Clear
5:55 AM 42.4 °F 40.7 °F 34.3 °F 73% 30.21 in 10.0 mi NNW 3.5 mph - N/A   Clear
6:15 AM 42.3 °F 39.4 °F 34.7 °F 75% 30.21 in 10.0 mi North 4.6 mph - N/A   Clear
6:35 AM 42.1 °F 39.2 °F 34.2 °F 74% 30.21 in 10.0 mi North 4.6 mph - N/A   Clear
6:55 AM 42.8 °F - 34.3 °F 72% 30.23 in 10.0 mi Calm Calm - N/A   Clear
7:15 AM 40.6 °F 38.6 °F 33.6 °F 76% 30.25 in 10.0 mi NW 3.5 mph - N/A   Clear
7:35 AM 38.7 °F - 33.3 °F 81% 30.26 in 10.0 mi North - - N/A   Clear
7:55 AM 39.2 °F 35.0 °F 33.8 °F 81% 30.27 in 10.0 mi WNW 5.8 mph - N/A   Clear
8:15 AM 41.5 °F 38.6 °F 35.8 °F 80% 30.29 in 10.0 mi West 4.6 mph - N/A   Clear
8:35 AM 45.0 °F 43.5 °F 36.7 °F 73% 30.30 in 10.0 mi West 3.5 mph - N/A   Clear
8:55 AM 46.9 °F - 37.0 °F 68% 30.31 in 10.0 mi West 3.5 mph - N/A   Clear
9:15 AM 49.1 °F - 37.0 °F 63% 30.32 in 10.0 mi West 4.6 mph - N/A   Clear
9:35 AM 52.2 °F - 36.1 °F 54% 30.32 in 10.0 mi NNW 4.6 mph - N/A   Clear
9:55 AM 53.8 °F - 35.2 °F 50% 30.33 in 10.0 mi North 4.6 mph - N/A   Clear
10:15 AM 55.6 °F - 35.2 °F 46% 30.33 in 10.0 mi North 3.5 mph - N/A   Clear
10:35 AM 57.6 °F - 35.8 °F 44% 30.33 in 10.0 mi North 4.6 mph - N/A   Clear
10:55 AM 59.5 °F - 35.6 °F 41% 30.33 in 10.0 mi NNE 5.8 mph - N/A   Clear
11:15 AM 61.9 °F - 34.7 °F 36% 30.33 in 10.0 mi North 5.8 mph - N/A   Clear
11:35 AM 62.8 °F - 34.3 °F 35% 30.33 in 10.0 mi North 4.6 mph - N/A   Clear
11:55 AM 65.1 °F - 34.0 °F 31% 30.33 in 10.0 mi NNW 4.6 mph - N/A   Clear
12:15 PM 67.3 °F - 33.1 °F 28% 30.32 in 10.0 mi Calm Calm - N/A   Clear
12:35 PM 68.9 °F - 31.6 °F 25% 30.32 in 10.0 mi NE 4.6 mph - N/A   Clear
12:55 PM 71.2 °F - 30.9 °F 23% 30.31 in 10.0 mi ENE 4.6 mph - N/A   Clear
1:15 PM 71.4 °F - 29.5 °F 21% 30.30 in 10.0 mi ENE 5.8 mph - N/A   Clear
1:35 PM 72.1 °F - 29.1 °F 20% 30.30 in 10.0 mi ENE 5.8 mph - N/A   Clear
1:55 PM 72.5 °F - 28.2 °F 19% 30.29 in 10.0 mi Calm Calm - N/A   Clear
2:15 PM 73.2 °F - 26.1 °F 17% 30.27 in 10.0 mi NNE 8.1 mph - N/A   Clear
2:35 PM 74.3 °F - 23.9 °F 15% 30.27 in 10.0 mi ENE 5.8 mph - N/A   Clear
2:55 PM 73.9 °F - 26.1 °F 17% 30.25 in 10.0 mi Calm Calm - N/A   Clear
3:15 PM 75.4 °F - 21.7 °F 13% 30.24 in 10.0 mi ESE 4.6 mph - N/A   Clear
3:35 PM 75.6 °F - 22.8 °F 14% 30.23 in 10.0 mi ESE 4.6 mph - N/A   Clear
3:55 PM 76.1 °F - 24.1 °F 14% 30.22 in 10.0 mi ENE 5.8 mph - N/A   Clear
4:15 PM 75.9 °F - 23.0 °F 14% 30.21 in 10.0 mi ESE 5.8 mph - N/A   Clear
4:35 PM 75.4 °F - 23.9 °F 15% 30.20 in 10.0 mi ESE 3.5 mph - N/A   Clear
4:55 PM 76.5 °F - 22.6 °F 13% 30.19 in 10.0 mi ESE 8.1 mph - N/A   Clear
5:15 PM 75.4 °F - 22.6 °F 14% 30.19 in 10.0 mi Calm Calm - N/A   Clear
5:35 PM 75.7 °F - 21.7 °F 13% 30.18 in 10.0 mi SE 4.6 mph - N/A   Clear
5:55 PM 76.1 °F - 21.4 °F 13% 30.18 in 10.0 mi East 8.1 mph - N/A   Clear
6:15 PM 75.4 °F - 20.3 °F 13% 30.17 in 10.0 mi NE 5.8 mph - N/A   Clear
6:35 PM 75.2 °F - 23.0 °F 14% 30.17 in 10.0 mi East 5.8 mph - N/A   Clear
6:55 PM 74.5 °F - 24.6 °F 16% 30.17 in 10.0 mi ESE 6.9 mph - N/A   Clear
7:15 PM 73.8 °F - 24.6 °F 16% 30.18 in 10.0 mi SE 5.8 mph - N/A   Clear
7:35 PM 72.5 °F - 23.7 °F 16% 30.18 in 10.0 mi ESE 6.9 mph - N/A   Clear
7:55 PM 70.2 °F - 23.9 °F 18% 30.18 in 10.0 mi ESE 5.8 mph - N/A   Clear
8:15 PM 68.0 °F - 24.6 °F 19% 30.18 in 10.0 mi SE 6.9 mph - N/A   Clear
8:35 PM 66.0 °F - 26.4 °F 22% 30.18 in 10.0 mi SE 8.1 mph - N/A   Clear
8:55 PM 64.9 °F - 27.0 °F 24% 30.17 in 10.0 mi SE 8.1 mph - N/A   Clear
9:15 PM 63.9 °F - 26.8 °F 25% 30.18 in 10.0 mi SE 9.2 mph - N/A   Clear
9:35 PM 62.8 °F - 26.2 °F 25% 30.18 in 10.0 mi SE 8.1 mph - N/A   Clear
9:55 PM 61.7 °F - 26.1 °F 26% 30.18 in 10.0 mi SE 9.2 mph - N/A   Clear
10:15 PM 61.2 °F - 26.2 °F 26% 30.19 in 10.0 mi SSE 8.1 mph - N/A   Clear
10:35 PM 59.7 °F - 27.0 °F 29% 30.19 in 10.0 mi SSE 9.2 mph - N/A   Clear
10:55 PM 60.1 °F - 27.7 °F 29% 30.19 in 10.0 mi SSE 10.4 mph - N/A   Clear
11:15 PM 60.1 °F - 28.4 °F 30% 30.19 in 10.0 mi SSE 12.7 mph - N/A   Clear
11:35 PM 59.9 °F - 28.4 °F 30% 30.19 in 10.0 mi SSE 10.4 mph - N/A   Clear
11:55 PM 59.4 °F - 28.9 °F 31% 30.19 in 10.0 mi SE 10.4 mph - N/A   Clear